Antonio Carlos, Brazil
Current Conditions -  °F | °C
As of 7:00 PM on Sunday 21 Dec 2014 (Local Time) from SBBQ Reporting Station
Broken Clouds Broken Clouds  
Wind Chill: 72°   Ceiling: 8000
Heat Index: 72°   Visibility: 6mi
Dew Point: 66°   Wind: 7mph
Humidity: 83%   Direction: 30°NNE
Pressure: 30.03"   Gusts: NA
Location:  21.32°S, 43.75°W
Report Text: SBBQ 212100Z 03006KT 9999 SCT035 FEW040TCU BKN080 22/19 Q1017
Loading
Personal Weather Stations






























Interactive Weather Map New forecast layout! Learn more

10-Day Weather Forecast

Advertisements
Track Severe Weather on mobile